Time;durP1;ratioP1;P1;durP2;ratioP2;P2;SDS_P1;SDS_P2;PMS_P1;PMS_P2;Temp;Humidity;BMP_temperature;BMP_pressure;BME280_temperature;BME280_humidity;BME280_pressure;Samples;Min_cycle;Max_cycle;Signal;HPM_P1;HPM_P2
2020/12/11 00:01:35;;;;;;;2.53;2.13;;;17.10;50.00;;;;;;4988676;28;20581;-58
2020/12/11 00:04:01;;;;;;;2.60;2.30;;;17.20;50.10;;;;;;4981893;28;20220;-58
2020/12/11 00:06:28;;;;;;;2.50;2.30;;;17.20;49.80;;;;;;4992081;28;20232;-56
2020/12/11 00:08:54;;;;;;;6.57;3.00;;;17.30;49.70;;;;;;4985451;28;20243;-61
2020/12/11 00:11:28;;;;;;;4.73;2.00;;;17.40;49.70;;;;;;4985494;28;20240;-59
2020/12/11 00:13:56;;;;;;;4.17;2.30;;;17.30;49.30;;;;;;5000363;28;20593;-58
2020/12/11 00:16:22;;;;;;;3.20;2.30;;;17.30;49.30;;;;;;5005712;28;20226;-58
2020/12/11 00:18:49;;;;;;;4.77;2.53;;;17.20;49.20;;;;;;5000323;28;20779;-59
2020/12/11 00:21:15;;;;;;;3.10;2.37;;;17.20;49.30;;;;;;5003840;28;20236;-59
2020/12/11 00:23:42;;;;;;;2.70;2.50;;;17.10;49.20;;;;;;4999219;28;20223;-57
2020/12/11 00:26:08;;;;;;;3.00;2.13;;;17.10;49.20;;;;;;5007643;28;20235;-58
2020/12/11 00:28:35;;;;;;;4.83;2.27;;;17.10;49.30;;;;;;5000308;28;20215;-57
2020/12/11 00:31:01;;;;;;;3.07;2.53;;;17.00;49.30;;;;;;5004918;28;20239;-57
2020/12/11 00:33:27;;;;;;;2.40;2.20;;;17.00;49.30;;;;;;5001606;28;21993;-59
2020/12/11 00:35:54;;;;;;;2.53;2.33;;;17.00;49.30;;;;;;4993835;28;20232;-59
2020/12/11 00:38:21;;;;;;;2.47;2.27;;;17.00;49.40;;;;;;4978533;28;20220;-59
2020/12/11 00:40:47;;;;;;;2.80;2.40;;;16.90;49.40;;;;;;4987634;28;20696;-59
2020/12/11 00:43:14;;;;;;;2.77;2.50;;;16.90;49.30;;;;;;4997286;28;20216;-56
2020/12/11 00:45:40;;;;;;;3.57;2.50;;;16.90;49.40;;;;;;4994895;28;20223;-59
2020/12/11 00:48:07;;;;;;;2.80;2.57;;;16.90;49.50;;;;;;5009021;28;20265;-57
2020/12/11 00:50:33;;;;;;;2.80;2.60;;;16.90;49.50;;;;;;5012237;28;20222;-57
2020/12/11 00:53:00;;;;;;;3.87;2.80;;;16.90;50.10;;;;;;5024980;28;20224;-57
2020/12/11 00:55:26;;;;;;;3.37;2.83;;;16.90;49.50;;;;;;5014699;28;20227;-58
2020/12/11 00:57:52;;;;;;;3.20;2.50;;;16.90;49.60;;;;;;5005952;28;20219;-57
2020/12/11 01:00:19;;;;;;;3.23;2.37;;;16.80;49.50;;;;;;5000672;28;20227;-59
2020/12/11 01:02:45;;;;;;;5.00;2.70;;;16.80;49.60;;;;;;5007412;28;20696;-59
2020/12/11 01:05:16;;;;;;;2.30;2.10;;;16.80;49.60;;;;;;5000760;28;20227;-58
2020/12/11 01:07:43;;;;;;;3.10;2.17;;;16.80;49.70;;;;;;5005594;28;20581;-58
2020/12/11 01:10:09;;;;;;;2.50;2.30;;;16.80;49.60;;;;;;5002722;28;20227;-59
2020/12/11 01:12:35;;;;;;;2.50;2.17;;;16.80;49.70;;;;;;5005384;28;20231;-57
2020/12/11 01:15:02;;;;;;;3.87;2.53;;;16.70;49.60;;;;;;5000602;28;20741;-57
2020/12/11 01:17:29;;;;;;;2.70;2.50;;;16.70;49.70;;;;;;5004837;28;20235;-58
2020/12/11 01:19:55;;;;;;;2.60;2.40;;;16.70;49.70;;;;;;5008803;28;20227;-59
2020/12/11 01:22:21;;;;;;;2.50;2.30;;;16.70;49.80;;;;;;4999006;28;20239;-60
2020/12/11 01:24:48;;;;;;;2.47;2.27;;;16.70;49.80;;;;;;5007465;28;20230;-57
2020/12/11 01:27:14;;;;;;;3.00;2.40;;;16.60;49.90;;;;;;4999413;28;20234;-58
2020/12/11 01:29:40;;;;;;;2.80;2.30;;;16.60;49.90;;;;;;5007822;28;20227;-58
2020/12/11 01:32:06;;;;;;;4.47;2.63;;;16.60;49.90;;;;;;5012690;28;20220;-59
2020/12/11 01:34:33;;;;;;;3.03;2.50;;;16.60;49.90;;;;;;5004650;28;20239;-58
2020/12/11 01:37:04;;;;;;;2.60;2.40;;;16.60;50.00;;;;;;4998105;28;20227;-57
2020/12/11 01:39:31;;;;;;;2.50;2.30;;;16.60;50.00;;;;;;5009962;28;20258;-58
2020/12/11 01:41:59;;;;;;;3.90;2.47;;;16.60;50.00;;;;;;5008300;28;20215;-58
2020/12/11 01:44:26;;;;;;;3.03;2.60;;;16.60;50.10;;;;;;5008553;28;20903;-58
2020/12/11 01:46:58;;;;;;;3.17;2.77;;;16.60;50.10;;;;;;5006370;28;20228;-58
2020/12/11 01:49:25;;;;;;;2.83;2.30;;;16.50;50.10;;;;;;5005653;28;20223;-58
2020/12/11 01:51:51;;;;;;;2.50;2.30;;;16.50;50.10;;;;;;4997723;28;20227;-59
2020/12/11 01:54:18;;;;;;;2.43;2.23;;;16.50;50.10;;;;;;5009330;28;20235;-59
2020/12/11 01:56:58;;;;;;;3.33;2.70;;;16.50;50.10;;;;;;5019747;28;20222;-59
2020/12/11 01:59:44;;;;;;;3.00;2.60;;;16.50;50.10;;;;;;5021348;28;20590;-58
2020/12/11 02:02:13;;;;;;;2.57;2.37;;;16.50;50.20;;;;;;5005497;28;21727;-57
2020/12/11 02:04:40;;;;;;;2.80;2.50;;;16.50;50.20;;;;;;5007589;28;20679;-58
2020/12/11 02:07:06;;;;;;;2.70;2.50;;;16.50;50.30;;;;;;5000935;28;20231;-59
2020/12/11 02:09:34;;;;;;;2.87;2.57;;;16.50;50.30;;;;;;5006839;28;20231;-59
2020/12/11 02:12:01;;;;;;;2.70;2.20;;;16.40;50.30;;;;;;5011172;28;20235;-58
2020/12/11 02:14:28;;;;;;;2.87;2.50;;;16.40;50.30;;;;;;5002708;28;20231;-59
2020/12/11 02:16:58;;;;;;;3.10;2.80;;;16.40;50.30;;;;;;5006859;28;20242;-58
2020/12/11 02:19:29;;;;;;;4.83;2.30;;;16.40;50.30;;;;;;5004608;28;20256;-59
2020/12/11 02:22:00;;;;;;;3.10;2.63;;;16.40;50.40;;;;;;5011723;28;20582;-58
2020/12/11 02:24:27;;;;;;;2.97;2.53;;;16.40;50.40;;;;;;5005306;28;20227;-57
2020/12/11 02:26:55;;;;;;;2.87;2.57;;;16.40;50.50;;;;;;5006329;28;20819;-58
2020/12/11 02:29:21;;;;;;;2.70;2.17;;;16.40;50.50;;;;;;4998228;28;20219;-58
2020/12/11 02:31:48;;;;;;;2.80;2.50;;;16.40;50.50;;;;;;5007765;28;20615;-58
2020/12/11 02:34:14;;;;;;;3.20;2.37;;;16.40;50.60;;;;;;4998275;28;20227;-58
2020/12/11 02:36:41;;;;;;;2.87;2.20;;;16.30;50.60;;;;;;5007252;28;20695;-59
2020/12/11 02:39:08;;;;;;;2.70;2.30;;;16.30;50.70;;;;;;4997868;28;20855;-59
2020/12/11 02:41:34;;;;;;;3.10;2.50;;;16.30;50.70;;;;;;5008044;28;20716;-59
2020/12/11 02:44:01;;;;;;;2.63;2.20;;;16.30;50.70;;;;;;5003463;28;20683;-59
2020/12/11 02:46:28;;;;;;;4.33;2.30;;;16.20;50.70;;;;;;5010257;28;20227;-59
2020/12/11 02:48:55;;;;;;;2.60;2.30;;;16.30;50.80;;;;;;5003727;28;20687;-57
2020/12/11 02:51:21;;;;;;;3.27;2.60;;;16.20;50.80;;;;;;5016706;28;20235;-57
2020/12/11 02:53:50;;;;;;;2.80;2.27;;;16.20;50.70;;;;;;5029487;28;20238;-61
2020/12/11 02:56:21;;;;;;;2.47;2.20;;;16.20;50.80;;;;;;5008321;28;20224;-60
2020/12/11 02:58:47;;;;;;;3.30;2.03;;;16.20;50.80;;;;;;5009673;28;20218;-57
2020/12/11 03:01:14;;;;;;;3.43;2.40;;;16.20;50.80;;;;;;5004819;28;20224;-58
2020/12/11 03:03:40;;;;;;;2.30;2.10;;;16.20;50.80;;;;;;5026745;28;20227;-58
2020/12/11 03:06:07;;;;;;;3.43;2.60;;;16.20;50.90;;;;;;5005970;28;20597;-57
2020/12/11 03:08:33;;;;;;;2.87;2.23;;;16.20;50.90;;;;;;5018672;28;20219;-58
2020/12/11 03:10:59;;;;;;;2.20;2.00;;;16.10;50.90;;;;;;5015227;28;20694;-58
2020/12/11 03:13:26;;;;;;;3.30;2.60;;;16.20;50.90;;;;;;5009510;28;20220;-58
2020/12/11 03:15:53;;;;;;;2.40;2.20;;;16.20;50.90;;;;;;5006981;28;20227;-57
2020/12/11 03:18:19;;;;;;;3.03;2.30;;;16.10;50.80;;;;;;5008834;28;20701;-57
2020/12/11 03:20:45;;;;;;;2.40;2.20;;;16.10;50.90;;;;;;5005364;28;20227;-59
2020/12/11 03:23:12;;;;;;;3.00;2.40;;;16.20;50.90;;;;;;5008303;28;20590;-58
2020/12/11 03:25:38;;;;;;;2.60;2.37;;;16.10;50.90;;;;;;5003757;28;20212;-57
2020/12/11 03:28:04;;;;;;;2.30;2.10;;;16.10;51.00;;;;;;5009233;28;20543;-57
2020/12/11 03:30:30;;;;;;;2.20;1.90;;;16.10;51.00;;;;;;5003802;28;20668;-57
2020/12/11 03:32:57;;;;;;;2.90;2.27;;;16.10;51.00;;;;;;5010825;28;20223;-57
2020/12/11 03:35:23;;;;;;;2.73;2.40;;;16.10;51.00;;;;;;5009243;28;20227;-59
2020/12/11 03:37:50;;;;;;;2.23;2.03;;;16.10;51.60;;;;;;5004523;28;20856;-56
2020/12/11 03:40:16;;;;;;;2.20;2.00;;;16.00;51.00;;;;;;5007918;28;20227;-57
2020/12/11 03:42:42;;;;;;;2.20;2.00;;;16.00;51.00;;;;;;5005063;28;20242;-59
2020/12/11 03:45:09;;;;;;;2.70;2.40;;;16.00;51.00;;;;;;5008038;28;20231;-57
2020/12/11 03:47:36;;;;;;;2.50;2.30;;;16.00;51.10;;;;;;5005104;28;20231;-57
2020/12/11 03:50:03;;;;;;;2.53;2.33;;;16.00;51.00;;;;;;5008456;28;20243;-59
2020/12/11 03:52:30;;;;;;;2.60;2.40;;;16.00;51.10;;;;;;5006264;28;20723;-57
2020/12/11 03:54:57;;;;;;;2.50;2.30;;;16.00;51.20;;;;;;5008446;28;20223;-57
2020/12/11 03:57:23;;;;;;;3.10;2.47;;;16.00;51.20;;;;;;5004383;28;20238;-57
2020/12/11 03:59:50;;;;;;;2.47;1.97;;;16.00;51.10;;;;;;5009685;28;20227;-57
2020/12/11 04:02:16;;;;;;;2.77;2.30;;;16.00;51.20;;;;;;5004134;28;20239;-56
2020/12/11 04:04:43;;;;;;;2.30;2.10;;;16.00;51.20;;;;;;5006299;28;20236;-57
2020/12/11 04:07:10;;;;;;;2.80;2.60;;;15.90;51.10;;;;;;5004885;28;20581;-57
2020/12/11 04:09:37;;;;;;;2.13;1.90;;;16.00;51.20;;;;;;5007750;28;20238;-59
2020/12/11 04:12:03;;;;;;;3.03;2.27;;;16.00;51.20;;;;;;5010305;28;20242;-57
2020/12/11 04:14:30;;;;;;;3.20;2.40;;;15.90;51.10;;;;;;5002287;28;20235;-58
2020/12/11 04:16:59;;;;;;;2.90;2.30;;;15.90;51.20;;;;;;5009844;28;20279;-57
2020/12/11 04:19:26;;;;;;;2.97;2.17;;;15.90;51.30;;;;;;5023385;28;20598;-57
2020/12/11 04:21:54;;;;;;;2.83;2.63;;;15.90;51.30;;;;;;5030099;28;20409;-57
2020/12/11 04:24:22;;;;;;;3.83;2.40;;;15.90;51.20;;;;;;5022230;28;20269;-57
2020/12/11 04:26:48;;;;;;;7.80;2.53;;;15.90;51.30;;;;;;5027061;28;20242;-58
2020/12/11 04:29:14;;;;;;;3.47;2.30;;;15.90;51.20;;;;;;5021884;28;20753;-56
2020/12/11 04:31:41;;;;;;;2.23;2.13;;;15.90;51.30;;;;;;5028818;28;20237;-57
2020/12/11 04:34:07;;;;;;;2.30;2.10;;;15.90;51.30;;;;;;5007904;28;20220;-57
2020/12/11 04:36:38;;;;;;;2.37;2.17;;;15.90;51.30;;;;;;5009053;28;20232;-57
2020/12/11 04:39:05;;;;;;;2.73;2.40;;;15.90;51.40;;;;;;5003901;28;20224;-58
2020/12/11 04:41:38;;;;;;;3.30;1.90;;;15.90;51.30;;;;;;5009076;28;20231;-58
2020/12/11 04:44:07;;;;;;;2.27;2.07;;;15.90;51.30;;;;;;5004358;28;21192;-57
2020/12/11 04:46:33;;;;;;;2.60;2.40;;;15.90;51.30;;;;;;5028814;28;20702;-59
2020/12/11 04:49:01;;;;;;;2.67;2.43;;;15.90;51.30;;;;;;5007377;28;20235;-58
2020/12/11 04:51:30;;;;;;;2.60;2.40;;;15.90;51.20;;;;;;5017079;28;20662;-59
2020/12/11 04:53:58;;;;;;;3.23;2.40;;;15.90;51.20;;;;;;5019996;28;20335;-57
2020/12/11 04:56:25;;;;;;;3.30;2.70;;;15.90;51.20;;;;;;5010416;28;20223;-58
2020/12/11 04:58:53;;;;;;;2.97;2.47;;;15.90;51.20;;;;;;5009226;28;20219;-58
2020/12/11 05:01:33;;;;;;;2.87;2.67;;;15.90;51.10;;;;;;5000390;28;20219;-58
2020/12/11 05:04:01;;;;;;;3.07;2.40;;;15.90;51.10;;;;;;5026113;28;20771;-58
2020/12/11 05:06:28;;;;;;;2.80;2.60;;;15.90;51.10;;;;;;5011703;28;20231;-58
2020/12/11 05:09:12;;;;;;;2.33;2.13;;;15.90;51.20;;;;;;5010192;28;20235;-57
2020/12/11 05:11:39;;;;;;;2.70;2.50;;;15.90;51.10;;;;;;5019382;28;20229;-58
2020/12/11 05:14:18;;;;;;;3.00;2.60;;;15.90;51.10;;;;;;5028073;28;20222;-57
2020/12/11 05:16:54;;;;;;;2.97;2.17;;;15.90;51.10;;;;;;5019829;28;20498;-57
2020/12/11 05:19:21;;;;;;;2.47;2.27;;;15.90;51.10;;;;;;5023868;28;20568;-57
2020/12/11 05:21:47;;;;;;;2.80;2.53;;;15.90;51.80;;;;;;5019833;28;20851;-57
2020/12/11 05:24:14;;;;;;;2.43;2.23;;;15.90;51.10;;;;;;5028050;28;20603;-57
2020/12/11 05:26:40;;;;;;;3.50;2.50;;;15.90;51.10;;;;;;5019508;28;20231;-57
2020/12/11 05:29:06;;;;;;;3.27;2.97;;;15.90;51.10;;;;;;5027316;28;20230;-57
2020/12/11 05:31:33;;;;;;;3.17;2.53;;;15.90;51.10;;;;;;5021885;28;20229;-57
2020/12/11 05:34:05;;;;;;;2.90;2.70;;;15.80;51.10;;;;;;5025692;28;20249;-58
2020/12/11 05:36:42;;;;;;;3.43;2.47;;;15.80;51.10;;;;;;5006877;28;20228;-57
2020/12/11 05:39:08;;;;;;;3.00;2.70;;;15.80;51.20;;;;;;5024952;28;20247;-57
2020/12/11 05:41:35;;;;;;;3.37;3.07;;;15.80;51.20;;;;;;5016413;28;20223;-58
2020/12/11 05:44:02;;;;;;;3.93;2.87;;;15.80;51.20;;;;;;5026041;28;20227;-57
2020/12/11 05:46:32;;;;;;;2.93;2.73;;;15.80;51.10;;;;;;5017484;28;20246;-57
2020/12/11 05:48:59;;;;;;;3.20;2.90;;;15.80;51.20;;;;;;5026410;28;20273;-57
2020/12/11 05:51:35;;;;;;;2.77;2.40;;;15.80;51.20;;;;;;5015790;28;20223;-57
2020/12/11 05:54:05;;;;;;;2.80;2.50;;;15.80;51.10;;;;;;5022934;28;20222;-58
2020/12/11 05:56:32;;;;;;;11.20;2.40;;;15.80;51.10;;;;;;5017987;28;20226;-57
2020/12/11 05:58:59;;;;;;;3.73;3.43;;;15.80;51.10;;;;;;5024323;28;25287;-58
2020/12/11 06:01:26;;;;;;;2.93;2.60;;;15.80;51.10;;;;;;5025603;28;20231;-57
2020/12/11 06:03:53;;;;;;;3.10;2.80;;;15.80;51.10;;;;;;5020825;28;20230;-58
2020/12/11 06:06:22;;;;;;;2.90;2.60;;;15.80;51.10;;;;;;5023020;28;20746;-58
2020/12/11 06:08:52;;;;;;;4.23;2.87;;;15.70;51.00;;;;;;5018163;28;20231;-58
2020/12/11 06:11:24;;;;;;;3.43;3.13;;;15.70;51.00;;;;;;5024906;28;20717;-58
2020/12/11 06:13:56;;;;;;;3.37;2.80;;;15.70;50.90;;;;;;5020247;28;20245;-58
2020/12/11 06:16:24;;;;;;;3.23;2.93;;;15.70;50.90;;;;;;5024594;28;20230;-58
2020/12/11 06:19:00;;;;;;;3.80;2.93;;;15.70;50.90;;;;;;5023157;28;20241;-58
2020/12/11 06:21:27;;;;;;;3.80;3.17;;;15.70;50.90;;;;;;5029997;28;20230;-59
2020/12/11 06:23:54;;;;;;;3.70;3.30;;;15.70;50.90;;;;;;5023495;28;20233;-58
2020/12/11 06:26:20;;;;;;;3.90;3.37;;;15.70;51.10;;;;;;5029281;28;20246;-58
2020/12/11 06:28:50;;;;;;;5.87;3.20;;;15.70;50.90;;;;;;5013200;28;20229;-58
2020/12/11 06:31:18;;;;;;;3.67;2.83;;;15.70;51.10;;;;;;5023527;28;20226;-58
2020/12/11 06:33:47;;;;;;;4.10;2.17;;;16.40;50.10;;;;;;5021681;28;20230;-59
2020/12/11 06:36:14;;;;;;;3.27;2.70;;;17.00;48.80;;;;;;5026861;28;20230;-56
2020/12/11 06:38:47;;;;;;;2.97;2.50;;;17.60;47.80;;;;;;5025635;28;20215;-56
2020/12/11 06:41:28;;;;;;;2.37;2.17;;;18.10;46.90;;;;;;5027514;28;20226;-57
2020/12/11 06:43:56;;;;;;;3.40;2.23;;;18.50;46.10;;;;;;5024595;28;21071;-59
2020/12/11 06:46:27;;;;;;;5.77;2.60;;;18.80;46.00;;;;;;5029130;28;20214;-57
2020/12/11 06:49:14;;;;;;;2.83;2.27;;;18.90;45.70;;;;;;5018856;28;20233;-60
2020/12/11 06:51:46;;;;;;;4.07;2.50;;;19.20;45.20;;;;;;5029018;28;20317;-58
2020/12/11 06:54:33;;;;;;;4.73;2.07;;;19.30;45.00;;;;;;5025923;28;21345;-58
2020/12/11 06:57:00;;;;;;;4.27;2.33;;;19.50;44.80;;;;;;5028204;28;20231;-57
2020/12/11 06:59:39;;;;;;;2.20;1.80;;;19.80;44.40;;;;;;5025178;28;20230;-57
2020/12/11 07:02:08;;;;;;;2.37;1.97;;;20.00;43.90;;;;;;5027633;28;21611;-57
2020/12/11 07:04:39;;;;;;;4.10;2.00;;;20.10;43.80;;;;;;5004291;28;21675;-58
2020/12/11 07:07:05;;;;;;;2.63;2.03;;;20.20;43.60;;;;;;5028133;28;20238;-58
2020/12/11 07:09:38;;;;;;;5.17;1.97;;;20.40;43.30;;;;;;5003528;28;20706;-57
2020/12/11 07:12:04;;;;;;;3.33;1.97;;;20.50;43.30;;;;;;5012749;28;20610;-57
2020/12/11 07:14:31;;;;;;;11.23;2.53;;;20.70;43.00;;;;;;5022061;28;20223;-60
2020/12/11 07:16:57;;;;;;;2.33;1.80;;;20.90;42.70;;;;;;5010678;28;20242;-58
2020/12/11 07:19:23;;;;;;;4.53;1.90;;;21.00;42.70;;;;;;5008684;28;20782;-57
2020/12/11 07:21:50;;;;;;;2.43;2.03;;;21.10;42.40;;;;;;5004511;28;20739;-58
2020/12/11 07:24:16;;;;;;;3.00;1.90;;;21.20;42.20;;;;;;5010889;28;20286;-58
2020/12/11 07:26:42;;;;;;;5.07;1.93;;;21.40;42.00;;;;;;5003437;28;20231;-58
2020/12/11 07:29:13;;;;;;;3.53;2.13;;;21.50;41.80;;;;;;5006512;28;20223;-59
2020/12/11 07:31:42;;;;;;;3.67;1.70;;;21.70;41.60;;;;;;5001750;28;20223;-56
2020/12/11 07:34:25;;;;;;;2.03;1.83;;;21.80;41.40;;;;;;5029272;28;20226;-57
2020/12/11 07:36:56;;;;;;;2.13;1.73;;;21.90;41.30;;;;;;5002683;28;20530;-57
2020/12/11 07:39:23;;;;;;;3.77;1.87;;;21.90;41.40;;;;;;5008831;28;20227;-57
2020/12/11 07:41:50;;;;;;;2.27;1.77;;;21.90;41.30;;;;;;5015474;28;20235;-56
2020/12/11 07:44:30;;;;;;;1.93;1.73;;;22.10;40.90;;;;;;5006919;28;20235;-55
2020/12/11 07:47:10;;;;;;;2.70;2.00;;;22.60;40.20;;;;;;5003637;28;20513;-57
2020/12/11 07:49:41;;;;;;;3.20;2.00;;;22.90;39.50;;;;;;5010792;28;20250;-57
2020/12/11 07:52:09;;;;;;;2.17;1.70;;;23.00;39.20;;;;;;5006115;28;20753;-57
2020/12/11 07:54:42;;;;;;;3.53;2.00;;;23.10;39.30;;;;;;5013299;28;20229;-56
2020/12/11 07:57:12;;;;;;;3.97;2.03;;;23.10;39.20;;;;;;5019262;28;20246;-55
2020/12/11 07:59:58;;;;;;;3.50;2.10;;;23.20;38.90;;;;;;5012363;28;20260;-55
2020/12/11 08:02:26;;;;;;;2.07;1.87;;;23.10;38.70;;;;;;5031440;28;20227;-57
2020/12/11 08:04:53;;;;;;;1.80;1.70;;;23.00;38.80;;;;;;5027435;28;20233;-56
2020/12/11 08:07:34;;;;;;;2.60;1.83;;;22.90;38.50;;;;;;5023203;28;20227;-56
2020/12/11 08:10:11;;;;;;;2.83;2.13;;;22.90;38.50;;;;;;5028765;28;20229;-56
2020/12/11 08:12:41;;;;;;;1.97;1.77;;;22.90;38.40;;;;;;5022948;28;20231;-57
2020/12/11 08:15:09;;;;;;;4.70;2.10;;;22.90;38.40;;;;;;5026592;28;20223;-58
2020/12/11 08:17:36;;;;;;;9.23;2.20;;;22.80;38.50;;;;;;5022042;28;20225;-58
2020/12/11 08:20:05;;;;;;;8.43;3.30;;;23.00;38.70;;;;;;5025884;28;20232;-57
2020/12/11 08:22:33;;;;;;;12.60;3.50;;;23.00;38.90;;;;;;5023944;28;20233;-58
2020/12/11 08:25:00;;;;;;;12.80;3.73;;;23.10;39.10;;;;;;5026664;28;20726;-57
2020/12/11 08:27:28;;;;;;;9.80;3.97;;;23.20;39.00;;;;;;5024171;28;20238;-55
2020/12/11 08:30:17;;;;;;;10.20;3.90;;;23.40;38.90;;;;;;5021350;28;20223;-56
2020/12/11 08:32:46;;;;;;;9.07;3.60;;;23.50;38.80;;;;;;5017407;28;20296;-57
2020/12/11 08:35:17;;;;;;;7.37;3.67;;;23.50;38.80;;;;;;5011401;28;20250;-56
2020/12/11 08:38:00;;;;;;;6.30;3.80;;;23.50;38.80;;;;;;5007499;28;20680;-56
2020/12/11 08:40:29;;;;;;;6.03;3.43;;;23.60;38.70;;;;;;5005052;28;20227;-56
2020/12/11 08:43:01;;;;;;;7.57;3.57;;;23.60;38.60;;;;;;5027702;28;20232;-57
2020/12/11 08:45:43;;;;;;;9.53;3.60;;;23.70;38.50;;;;;;5002261;28;20228;-57
2020/12/11 08:48:23;;;;;;;5.23;3.03;;;23.80;38.40;;;;;;5005388;28;20337;-55
2020/12/11 08:51:00;;;;;;;6.00;3.13;;;23.80;39.00;;;;;;5001503;28;20250;-57
2020/12/11 08:53:28;;;;;;;5.53;2.90;;;23.90;38.30;;;;;;5014209;28;20243;-56
2020/12/11 08:55:59;;;;;;;9.87;3.00;;;23.90;38.20;;;;;;5001083;28;20230;-56
2020/12/11 08:58:25;;;;;;;4.77;2.97;;;24.00;38.10;;;;;;5006923;28;20258;-55
2020/12/11 09:00:52;;;;;;;5.50;2.90;;;24.00;38.10;;;;;;5002091;28;20230;-57
2020/12/11 09:03:19;;;;;;;5.23;3.20;;;24.20;37.90;;;;;;5007472;28;20214;-55
2020/12/11 09:05:51;;;;;;;3.97;2.87;;;24.20;37.80;;;;;;5001887;28;20314;-56
2020/12/11 09:08:17;;;;;;;6.23;4.20;;;24.20;37.80;;;;;;5006083;28;20806;-60
2020/12/11 09:10:43;;;;;;;6.37;3.23;;;23.60;35.60;;;;;;4999968;28;20247;-56
2020/12/11 09:13:10;;;;;;;3.47;2.70;;;23.80;36.80;;;;;;5005668;28;20594;-57
2020/12/11 09:15:36;;;;;;;3.30;2.87;;;24.00;37.00;;;;;;4998023;28;20238;-56
2020/12/11 09:18:02;;;;;;;4.23;2.33;;;24.30;37.00;;;;;;5006152;28;20215;-58
2020/12/11 09:20:29;;;;;;;3.63;2.30;;;24.40;37.10;;;;;;4998098;28;20711;-55
2020/12/11 09:22:55;;;;;;;2.57;2.10;;;24.50;37.20;;;;;;5004182;28;20220;-56
2020/12/11 09:25:22;;;;;;;3.83;2.20;;;24.50;37.10;;;;;;4998670;28;20223;-57
2020/12/11 09:27:49;;;;;;;3.07;2.40;;;24.60;37.30;;;;;;5008276;28;20220;-57
2020/12/11 09:33:07;;;;;;;1.97;1.80;;;24.70;37.00;;;;;;5004717;28;20955;-57
2020/12/11 09:35:39;;;;;;;2.47;1.97;;;24.80;37.00;;;;;;5002968;28;20416;-59
2020/12/11 09:38:05;;;;;;;2.53;2.00;;;24.90;37.00;;;;;;5014746;28;20228;-56
2020/12/11 09:51:02;;;;;;;3.53;1.83;;;25.20;37.10;;;;;;5003809;28;20723;-57
2020/12/11 09:54:01;;;;;;;2.23;1.73;;;25.30;36.60;;;;;;4998165;28;20241;-59
2020/12/11 09:56:27;;;;;;;2.20;1.97;;;25.40;36.50;;;;;;5002166;28;20236;-56
2020/12/11 09:58:59;;;;;;;2.00;1.70;;;25.30;36.60;;;;;;5007099;28;20235;-58
2020/12/11 10:01:29;;;;;;;2.30;2.10;;;25.30;36.60;;;;;;5005270;28;20356;-56
2020/12/11 10:03:56;;;;;;;2.00;1.80;;;25.30;36.60;;;;;;4999972;28;20297;-58
2020/12/11 10:06:27;;;;;;;1.60;1.50;;;25.50;36.50;;;;;;5004358;28;20219;-57
2020/12/11 10:08:53;;;;;;;2.00;1.63;;;25.40;36.50;;;;;;5020091;28;20229;-59
2020/12/11 10:11:20;;;;;;;1.67;1.43;;;25.40;36.50;;;;;;5015656;28;20611;-59
2020/12/11 10:13:52;;;;;;;4.07;2.00;;;25.50;36.40;;;;;;4997865;28;20230;-57
2020/12/11 10:16:18;;;;;;;1.80;1.70;;;25.70;36.30;;;;;;5005761;28;20906;-57
2020/12/11 10:18:45;;;;;;;2.53;1.70;;;25.90;36.10;;;;;;5006427;28;20386;-57
2020/12/11 10:21:11;;;;;;;1.90;1.70;;;25.80;36.10;;;;;;5005607;28;20219;-58
2020/12/11 10:23:38;;;;;;;1.90;1.80;;;25.70;36.20;;;;;;5003109;28;20821;-58
2020/12/11 10:26:05;;;;;;;1.90;1.70;;;25.70;36.20;;;;;;5014893;28;20238;-59
2020/12/11 10:28:32;;;;;;;1.97;1.80;;;25.80;36.20;;;;;;5000883;28;20290;-59
2020/12/11 10:30:58;;;;;;;2.13;1.93;;;26.00;36.10;;;;;;5003687;28;20699;-58
2020/12/11 10:33:25;;;;;;;1.57;1.47;;;26.10;35.80;;;;;;5002396;28;20786;-58
2020/12/11 10:35:51;;;;;;;1.70;1.60;;;26.10;35.50;;;;;;5032146;28;20381;-58
2020/12/11 10:38:19;;;;;;;1.73;1.60;;;26.20;35.50;;;;;;5018492;28;20231;-58
2020/12/11 10:40:45;;;;;;;2.23;1.13;;;26.10;35.60;;;;;;5025692;28;20230;-60
2020/12/11 10:43:12;;;;;;;3.33;1.40;;;26.10;35.70;;;;;;5023484;28;20246;-59
2020/12/11 10:45:43;;;;;;;2.17;1.50;;;26.10;35.80;;;;;;5019257;28;20227;-58
2020/12/11 10:48:09;;;;;;;1.83;1.57;;;26.10;35.70;;;;;;5006358;28;20235;-60
2020/12/11 10:50:36;;;;;;;1.67;1.43;;;26.30;35.50;;;;;;4996883;28;20231;-57
2020/12/11 10:53:02;;;;;;;1.80;1.60;;;26.50;35.30;;;;;;5001331;28;20223;-60
2020/12/11 10:55:28;;;;;;;1.83;1.47;;;26.40;35.50;;;;;;4995762;28;20232;-59
2020/12/11 10:57:55;;;;;;;2.63;1.40;;;26.60;35.50;;;;;;5003773;28;20224;-57
2020/12/11 11:00:22;;;;;;;1.70;1.60;;;26.40;35.60;;;;;;4998348;28;20222;-57
2020/12/11 11:02:48;;;;;;;1.70;1.60;;;26.30;35.60;;;;;;5005914;28;20223;-57
2020/12/11 11:05:15;;;;;;;1.60;1.50;;;26.30;35.70;;;;;;5003996;28;20219;-56
2020/12/11 11:07:41;;;;;;;1.70;1.60;;;26.30;35.70;;;;;;5006848;28;20250;-58
2020/12/11 11:12:45;;;;;;;1.80;1.70;;;26.40;36.00;;;;;;5008823;28;20227;-59
2020/12/11 11:18:01;;;;;;;1.83;1.63;;;25.40;36.10;;;;;;5005553;28;20246;-58
2020/12/11 11:20:44;;;;;;;1.50;1.40;;;25.00;36.30;;;;;;5002747;28;21859;-58
2020/12/11 11:23:23;;;;;;;2.00;1.73;;;24.60;36.40;;;;;;5006297;28;20227;-58
2020/12/11 11:28:35;;;;;;;3.90;1.80;;;24.10;36.80;;;;;;5007071;28;21195;-59
2020/12/11 11:31:01;;;;;;;1.83;1.73;;;24.00;36.90;;;;;;5018417;28;20591;-58
2020/12/11 11:33:27;;;;;;;2.20;1.50;;;23.80;37.00;;;;;;5020706;28;20234;-58
2020/12/11 11:35:53;;;;;;;1.77;1.67;;;23.70;37.20;;;;;;5024809;28;20237;-58
2020/12/11 11:38:20;;;;;;;2.47;1.90;;;23.60;37.30;;;;;;5016882;28;20245;-58
2020/12/11 11:40:48;;;;;;;2.03;1.83;;;23.50;37.30;;;;;;5014955;28;20234;-57
2020/12/11 11:43:20;;;;;;;3.57;1.70;;;23.30;37.50;;;;;;5027839;28;20713;-58
2020/12/11 11:45:46;;;;;;;1.90;1.63;;;23.30;37.60;;;;;;5023766;28;20227;-60
2020/12/11 11:48:16;;;;;;;1.90;1.70;;;23.10;37.70;;;;;;5001958;28;20254;-58
2020/12/11 11:50:58;;;;;;;1.70;1.60;;;23.10;37.70;;;;;;5005127;28;20243;-58
2020/12/11 11:53:27;;;;;;;1.83;1.67;;;22.90;37.90;;;;;;5021642;28;20237;-58
2020/12/11 11:55:53;;;;;;;2.20;1.83;;;22.80;37.90;;;;;;5027440;28;20590;-58
2020/12/11 11:58:20;;;;;;;1.90;1.70;;;22.80;38.30;;;;;;5023076;28;20239;-58
2020/12/11 12:00:48;;;;;;;2.10;1.90;;;22.70;38.10;;;;;;5023012;28;20219;-59
2020/12/11 12:03:15;;;;;;;1.80;1.60;;;22.50;40.70;;;;;;5019551;28;20227;-57
2020/12/11 12:05:45;;;;;;;2.63;1.90;;;22.50;40.10;;;;;;5025302;28;20520;-58
2020/12/11 12:08:12;;;;;;;2.53;1.73;;;22.50;40.10;;;;;;5018418;28;20228;-59
2020/12/11 12:10:38;;;;;;;1.90;1.70;;;22.50;41.20;;;;;;5028895;28;20234;-59
2020/12/11 12:13:05;;;;;;;5.67;2.20;;;22.50;41.00;;;;;;5023454;28;20223;-59
2020/12/11 12:15:32;;;;;;;5.17;1.73;;;22.60;42.40;;;;;;5026339;28;20706;-59
2020/12/11 12:18:08;;;;;;;1.93;1.80;;;22.50;41.50;;;;;;5021080;28;20233;-58
2020/12/11 12:20:55;;;;;;;1.83;1.70;;;22.50;41.70;;;;;;5027616;28;20219;-59
2020/12/11 12:27:18;;;;;;;3.23;1.90;;;22.50;41.80;;;;;;5021834;28;20223;-58
2020/12/11 12:29:10;;;;;;;2.03;1.83;;;22.50;42.20;;;;;;5015552;28;20377;-57
2020/12/11 12:31:49;;;;;;;2.73;1.70;;;22.50;41.80;;;;;;5025355;28;20402;-57
2020/12/11 12:37:24;;;;;;;1.70;1.60;;;22.40;42.10;;;;;;5005984;28;20230;-57
2020/12/11 12:40:19;;;;;;;3.13;1.70;;;22.50;42.30;;;;;;5000172;28;20234;-58
2020/12/11 12:45:22;;;;;;;1.60;1.50;;;22.40;41.90;;;;;;5005832;28;20226;-59
2020/12/11 12:47:48;;;;;;;2.83;1.50;;;22.40;42.00;;;;;;5005979;28;20227;-58
2020/12/11 12:50:14;;;;;;;1.30;1.20;;;22.40;42.40;;;;;;5018697;28;20219;-58
2020/12/11 12:52:41;;;;;;;1.53;1.27;;;22.40;41.70;;;;;;5022293;28;20809;-57
2020/12/11 12:55:08;;;;;;;2.90;1.70;;;22.40;42.30;;;;;;5018877;28;20223;-58
2020/12/11 13:00:14;;;;;;;2.07;1.67;;;22.30;42.50;;;;;;5003281;28;20239;-57
2020/12/11 13:03:01;;;;;;;1.67;1.57;;;22.30;42.60;;;;;;5017176;28;20225;-56
2020/12/11 13:05:28;;;;;;;2.87;1.63;;;22.30;42.20;;;;;;5010795;28;20719;-57
2020/12/11 13:07:54;;;;;;;2.40;1.63;;;22.30;43.00;;;;;;5010189;28;20254;-59
2020/12/11 13:10:20;;;;;;;3.87;1.47;;;22.30;42.60;;;;;;5021687;28;20233;-57
2020/12/11 13:12:47;;;;;;;1.50;1.40;;;22.30;42.40;;;;;;5025896;28;20697;-55
2020/12/11 13:15:15;;;;;;;2.47;1.50;;;21.90;41.40;;;;;;5018709;28;20886;-55
2020/12/11 13:17:41;;;;;;;4.50;1.40;;;22.00;41.50;;;;;;5028763;28;20253;-56
2020/12/11 13:20:09;;;;;;;1.50;1.40;;;22.00;41.80;;;;;;5021163;28;20234;-61
2020/12/11 13:22:53;;;;;;;2.40;1.33;;;22.10;41.70;;;;;;5027662;28;20232;-60
2020/12/11 13:27:57;;;;;;;1.40;1.27;;;22.10;41.80;;;;;;5027000;28;20596;-59
2020/12/11 13:30:24;;;;;;;6.17;1.20;;;22.10;42.20;;;;;;5022842;28;20306;-56